sensor_id;sensor_type;location;lat;lon;timestamp;P1;durP1;ratioP1;P2;durP2;ratioP2
19778;SDS011;10049;59.306;18.090;2023-05-07T00:00:38;1.73;;;0.70;;
19778;SDS011;10049;59.306;18.090;2023-05-07T00:03:07;1.40;;;0.83;;
19778;SDS011;10049;59.306;18.090;2023-05-07T00:05:38;2.57;;;0.60;;
19778;SDS011;10049;59.306;18.090;2023-05-07T00:08:06;1.23;;;0.80;;
19778;SDS011;10049;59.306;18.090;2023-05-07T00:10:34;1.43;;;0.73;;
19778;SDS011;10049;59.306;18.090;2023-05-07T00:13:01;3.33;;;0.80;;
19778;SDS011;10049;59.306;18.090;2023-05-07T00:15:29;1.00;;;0.73;;
19778;SDS011;10049;59.306;18.090;2023-05-07T00:17:56;1.67;;;0.67;;
19778;SDS011;10049;59.306;18.090;2023-05-07T00:20:25;1.20;;;0.90;;
19778;SDS011;10049;59.306;18.090;2023-05-07T00:22:53;0.70;;;0.70;;
19778;SDS011;10049;59.306;18.090;2023-05-07T00:25:21;2.20;;;0.90;;
19778;SDS011;10049;59.306;18.090;2023-05-07T00:27:49;1.20;;;0.70;;
19778;SDS011;10049;59.306;18.090;2023-05-07T00:30:16;0.83;;;0.70;;
19778;SDS011;10049;59.306;18.090;2023-05-07T00:32:44;0.93;;;0.73;;
19778;SDS011;10049;59.306;18.090;2023-05-07T00:35:15;0.63;;;0.60;;
19778;SDS011;10049;59.306;18.090;2023-05-07T00:37:42;1.30;;;0.90;;
19778;SDS011;10049;59.306;18.090;2023-05-07T00:40:11;0.93;;;0.80;;
19778;SDS011;10049;59.306;18.090;2023-05-07T00:42:39;1.23;;;0.70;;
19778;SDS011;10049;59.306;18.090;2023-05-07T00:45:12;0.70;;;0.70;;
19778;SDS011;10049;59.306;18.090;2023-05-07T00:47:39;1.83;;;0.80;;
19778;SDS011;10049;59.306;18.090;2023-05-07T00:50:08;1.77;;;0.60;;
19778;SDS011;10049;59.306;18.090;2023-05-07T00:52:37;1.07;;;0.63;;
19778;SDS011;10049;59.306;18.090;2023-05-07T00:55:07;1.13;;;0.80;;
19778;SDS011;10049;59.306;18.090;2023-05-07T00:57:37;0.83;;;0.70;;
19778;SDS011;10049;59.306;18.090;2023-05-07T01:00:07;2.20;;;0.70;;
19778;SDS011;10049;59.306;18.090;2023-05-07T01:02:35;0.70;;;0.70;;
19778;SDS011;10049;59.306;18.090;2023-05-07T01:05:03;1.80;;;0.70;;
19778;SDS011;10049;59.306;18.090;2023-05-07T01:07:32;1.00;;;0.80;;
19778;SDS011;10049;59.306;18.090;2023-05-07T01:10:00;1.47;;;0.83;;
19778;SDS011;10049;59.306;18.090;2023-05-07T01:12:29;2.07;;;0.93;;
19778;SDS011;10049;59.306;18.090;2023-05-07T01:14:59;1.80;;;1.00;;
19778;SDS011;10049;59.306;18.090;2023-05-07T01:17:26;1.20;;;0.90;;
19778;SDS011;10049;59.306;18.090;2023-05-07T01:19:54;1.47;;;0.90;;
19778;SDS011;10049;59.306;18.090;2023-05-07T01:22:27;1.10;;;1.00;;
19778;SDS011;10049;59.306;18.090;2023-05-07T01:24:57;4.33;;;0.87;;
19778;SDS011;10049;59.306;18.090;2023-05-07T01:27:27;3.70;;;1.10;;
19778;SDS011;10049;59.306;18.090;2023-05-07T01:29:54;1.57;;;0.87;;
19778;SDS011;10049;59.306;18.090;2023-05-07T01:32:26;1.63;;;1.00;;
19778;SDS011;10049;59.306;18.090;2023-05-07T01:34:54;2.57;;;0.80;;
19778;SDS011;10049;59.306;18.090;2023-05-07T01:37:22;0.80;;;0.70;;
19778;SDS011;10049;59.306;18.090;2023-05-07T01:39:52;3.17;;;0.80;;
19778;SDS011;10049;59.306;18.090;2023-05-07T01:42:21;6.67;;;0.90;;
19778;SDS011;10049;59.306;18.090;2023-05-07T01:44:49;1.67;;;1.00;;
19778;SDS011;10049;59.306;18.090;2023-05-07T01:47:16;1.00;;;0.90;;
19778;SDS011;10049;59.306;18.090;2023-05-07T01:49:45;3.40;;;1.13;;
19778;SDS011;10049;59.306;18.090;2023-05-07T01:52:13;2.00;;;1.10;;
19778;SDS011;10049;59.306;18.090;2023-05-07T01:54:40;2.10;;;1.23;;
19778;SDS011;10049;59.306;18.090;2023-05-07T01:57:09;4.40;;;1.10;;
19778;SDS011;10049;59.306;18.090;2023-05-07T01:59:37;3.53;;;1.30;;
19778;SDS011;10049;59.306;18.090;2023-05-07T02:02:04;1.70;;;1.00;;
19778;SDS011;10049;59.306;18.090;2023-05-07T02:04:32;3.00;;;1.00;;
19778;SDS011;10049;59.306;18.090;2023-05-07T02:07:00;1.47;;;1.00;;
19778;SDS011;10049;59.306;18.090;2023-05-07T02:09:28;3.23;;;1.20;;
19778;SDS011;10049;59.306;18.090;2023-05-07T02:11:57;1.57;;;1.10;;
19778;SDS011;10049;59.306;18.090;2023-05-07T02:14:26;3.33;;;1.23;;
19778;SDS011;10049;59.306;18.090;2023-05-07T02:16:53;1.40;;;1.10;;
19778;SDS011;10049;59.306;18.090;2023-05-07T02:19:21;1.23;;;1.10;;
19778;SDS011;10049;59.306;18.090;2023-05-07T02:21:49;1.80;;;1.17;;
19778;SDS011;10049;59.306;18.090;2023-05-07T02:24:16;2.03;;;1.27;;
19778;SDS011;10049;59.306;18.090;2023-05-07T02:26:44;1.17;;;1.07;;
19778;SDS011;10049;59.306;18.090;2023-05-07T02:29:12;1.80;;;1.10;;
19778;SDS011;10049;59.306;18.090;2023-05-07T02:31:41;1.23;;;1.00;;
19778;SDS011;10049;59.306;18.090;2023-05-07T02:34:08;2.27;;;1.10;;
19778;SDS011;10049;59.306;18.090;2023-05-07T02:36:39;1.83;;;1.20;;
19778;SDS011;10049;59.306;18.090;2023-05-07T02:39:07;3.67;;;1.20;;
19778;SDS011;10049;59.306;18.090;2023-05-07T02:41:34;1.23;;;1.00;;
19778;SDS011;10049;59.306;18.090;2023-05-07T02:44:04;1.20;;;1.00;;
19778;SDS011;10049;59.306;18.090;2023-05-07T02:46:31;1.10;;;1.00;;
19778;SDS011;10049;59.306;18.090;2023-05-07T02:49:00;3.80;;;1.00;;
19778;SDS011;10049;59.306;18.090;2023-05-07T02:51:29;1.53;;;0.97;;
19778;SDS011;10049;59.306;18.090;2023-05-07T02:53:57;1.10;;;1.00;;
19778;SDS011;10049;59.306;18.090;2023-05-07T02:56:26;1.40;;;1.10;;
19778;SDS011;10049;59.306;18.090;2023-05-07T02:58:54;1.53;;;1.00;;
19778;SDS011;10049;59.306;18.090;2023-05-07T03:01:21;2.53;;;1.13;;
19778;SDS011;10049;59.306;18.090;2023-05-07T03:03:49;1.43;;;1.10;;
19778;SDS011;10049;59.306;18.090;2023-05-07T03:06:18;3.33;;;1.13;;
19778;SDS011;10049;59.306;18.090;2023-05-07T03:08:46;1.37;;;1.07;;
19778;SDS011;10049;59.306;18.090;2023-05-07T03:11:13;1.50;;;1.07;;
19778;SDS011;10049;59.306;18.090;2023-05-07T03:13:41;1.77;;;1.27;;
19778;SDS011;10049;59.306;18.090;2023-05-07T03:16:09;1.40;;;1.10;;
19778;SDS011;10049;59.306;18.090;2023-05-07T03:18:36;1.17;;;0.90;;
19778;SDS011;10049;59.306;18.090;2023-05-07T03:21:04;0.90;;;0.90;;
19778;SDS011;10049;59.306;18.090;2023-05-07T03:23:33;1.10;;;1.00;;
19778;SDS011;10049;59.306;18.090;2023-05-07T03:26:00;1.40;;;1.00;;
19778;SDS011;10049;59.306;18.090;2023-05-07T03:28:28;1.00;;;0.90;;
19778;SDS011;10049;59.306;18.090;2023-05-07T03:30:55;1.35;;;0.80;;
19778;SDS011;10049;59.306;18.090;2023-05-07T03:33:23;1.02;;;0.90;;
19778;SDS011;10049;59.306;18.090;2023-05-07T03:35:54;2.10;;;0.90;;
19778;SDS011;10049;59.306;18.090;2023-05-07T03:38:22;1.00;;;0.90;;
19778;SDS011;10049;59.306;18.090;2023-05-07T03:40:51;1.10;;;0.80;;
19778;SDS011;10049;59.306;18.090;2023-05-07T03:43:19;2.22;;;0.90;;
19778;SDS011;10049;59.306;18.090;2023-05-07T03:45:46;0.80;;;0.80;;
19778;SDS011;10049;59.306;18.090;2023-05-07T03:48:14;1.77;;;0.90;;
19778;SDS011;10049;59.306;18.090;2023-05-07T03:50:41;0.80;;;0.80;;
19778;SDS011;10049;59.306;18.090;2023-05-07T03:53:09;1.35;;;0.90;;
19778;SDS011;10049;59.306;18.090;2023-05-07T03:55:36;0.70;;;0.70;;
19778;SDS011;10049;59.306;18.090;2023-05-07T03:58:05;1.20;;;0.80;;
19778;SDS011;10049;59.306;18.090;2023-05-07T04:00:33;1.33;;;0.98;;
19778;SDS011;10049;59.306;18.090;2023-05-07T04:03:03;2.35;;;0.90;;
19778;SDS011;10049;59.306;18.090;2023-05-07T04:05:31;3.55;;;0.82;;
19778;SDS011;10049;59.306;18.090;2023-05-07T04:07:58;2.80;;;0.77;;
19778;SDS011;10049;59.306;18.090;2023-05-07T04:10:26;2.92;;;0.80;;
19778;SDS011;10049;59.306;18.090;2023-05-07T04:12:54;2.80;;;0.70;;
19778;SDS011;10049;59.306;18.090;2023-05-07T04:15:24;1.33;;;0.80;;
19778;SDS011;10049;59.306;18.090;2023-05-07T04:17:52;0.75;;;0.75;;
19778;SDS011;10049;59.306;18.090;2023-05-07T04:20:19;2.22;;;0.82;;
19778;SDS011;10049;59.306;18.090;2023-05-07T04:22:47;1.15;;;0.77;;
19778;SDS011;10049;59.306;18.090;2023-05-07T04:25:15;0.73;;;0.60;;
19778;SDS011;10049;59.306;18.090;2023-05-07T04:27:43;0.85;;;0.85;;
19778;SDS011;10049;59.306;18.090;2023-05-07T04:30:11;0.98;;;0.77;;
19778;SDS011;10049;59.306;18.090;2023-05-07T04:32:40;0.80;;;0.70;;
19778;SDS011;10049;59.306;18.090;2023-05-07T04:35:09;1.08;;;0.80;;
19778;SDS011;10049;59.306;18.090;2023-05-07T04:37:37;1.88;;;0.82;;
19778;SDS011;10049;59.306;18.090;2023-05-07T04:40:05;3.50;;;0.82;;
19778;SDS011;10049;59.306;18.090;2023-05-07T04:42:33;0.80;;;0.80;;
19778;SDS011;10049;59.306;18.090;2023-05-07T04:45:01;2.08;;;0.73;;
19778;SDS011;10049;59.306;18.090;2023-05-07T04:47:30;2.85;;;0.98;;
19778;SDS011;10049;59.306;18.090;2023-05-07T04:50:00;4.72;;;0.80;;
19778;SDS011;10049;59.306;18.090;2023-05-07T04:52:27;0.82;;;0.82;;
19778;SDS011;10049;59.306;18.090;2023-05-07T04:54:56;3.00;;;1.08;;
19778;SDS011;10049;59.306;18.090;2023-05-07T04:57:23;1.88;;;1.00;;
19778;SDS011;10049;59.306;18.090;2023-05-07T04:59:51;1.08;;;0.70;;
19778;SDS011;10049;59.306;18.090;2023-05-07T05:02:19;0.60;;;0.60;;
19778;SDS011;10049;59.306;18.090;2023-05-07T05:04:46;1.35;;;0.80;;
19778;SDS011;10049;59.306;18.090;2023-05-07T05:07:15;0.95;;;0.70;;
19778;SDS011;10049;59.306;18.090;2023-05-07T05:09:42;0.80;;;0.70;;
19778;SDS011;10049;59.306;18.090;2023-05-07T05:12:10;1.45;;;0.70;;
19778;SDS011;10049;59.306;18.090;2023-05-07T05:14:37;1.10;;;0.70;;
19778;SDS011;10049;59.306;18.090;2023-05-07T05:17:05;3.20;;;0.60;;
19778;SDS011;10049;59.306;18.090;2023-05-07T05:19:32;1.05;;;0.60;;
19778;SDS011;10049;59.306;18.090;2023-05-07T05:22:00;1.38;;;0.68;;
19778;SDS011;10049;59.306;18.090;2023-05-07T05:24:30;0.55;;;0.50;;
19778;SDS011;10049;59.306;18.090;2023-05-07T05:26:58;0.80;;;0.57;;
19778;SDS011;10049;59.306;18.090;2023-05-07T05:29:26;0.52;;;0.50;;
19778;SDS011;10049;59.306;18.090;2023-05-07T05:31:53;1.75;;;0.50;;
19778;SDS011;10049;59.306;18.090;2023-05-07T05:34:21;1.13;;;0.50;;
19778;SDS011;10049;59.306;18.090;2023-05-07T05:36:48;0.88;;;0.50;;
19778;SDS011;10049;59.306;18.090;2023-05-07T05:39:16;0.82;;;0.52;;
19778;SDS011;10049;59.306;18.090;2023-05-07T05:41:45;0.70;;;0.50;;
19778;SDS011;10049;59.306;18.090;2023-05-07T05:44:14;1.02;;;0.50;;
19778;SDS011;10049;59.306;18.090;2023-05-07T05:46:42;1.20;;;0.60;;
19778;SDS011;10049;59.306;18.090;2023-05-07T05:49:10;0.65;;;0.40;;
19778;SDS011;10049;59.306;18.090;2023-05-07T05:51:39;1.30;;;0.60;;
19778;SDS011;10049;59.306;18.090;2023-05-07T05:54:07;0.40;;;0.40;;
19778;SDS011;10049;59.306;18.090;2023-05-07T05:56:34;1.08;;;0.60;;
19778;SDS011;10049;59.306;18.090;2023-05-07T05:59:03;0.85;;;0.70;;
19778;SDS011;10049;59.306;18.090;2023-05-07T06:01:32;4.38;;;0.70;;
19778;SDS011;10049;59.306;18.090;2023-05-07T06:03:59;0.75;;;0.50;;
19778;SDS011;10049;59.306;18.090;2023-05-07T06:06:27;1.05;;;0.50;;
19778;SDS011;10049;59.306;18.090;2023-05-07T06:08:54;1.38;;;0.60;;
19778;SDS011;10049;59.306;18.090;2023-05-07T06:11:22;0.40;;;0.40;;
19778;SDS011;10049;59.306;18.090;2023-05-07T06:13:50;0.65;;;0.50;;
19778;SDS011;10049;59.306;18.090;2023-05-07T06:16:20;1.95;;;0.50;;
19778;SDS011;10049;59.306;18.090;2023-05-07T06:18:47;0.40;;;0.40;;
19778;SDS011;10049;59.306;18.090;2023-05-07T06:21:14;0.50;;;0.47;;
19778;SDS011;10049;59.306;18.090;2023-05-07T06:23:42;1.48;;;0.50;;
19778;SDS011;10049;59.306;18.090;2023-05-07T06:26:10;0.60;;;0.60;;
19778;SDS011;10049;59.306;18.090;2023-05-07T06:28:37;0.50;;;0.50;;
19778;SDS011;10049;59.306;18.090;2023-05-07T06:31:12;0.55;;;0.40;;
19778;SDS011;10049;59.306;18.090;2023-05-07T06:33:41;0.60;;;0.50;;
19778;SDS011;10049;59.306;18.090;2023-05-07T06:36:08;1.42;;;0.60;;
19778;SDS011;10049;59.306;18.090;2023-05-07T06:38:38;1.17;;;0.55;;
19778;SDS011;10049;59.306;18.090;2023-05-07T06:41:06;3.00;;;0.52;;
19778;SDS011;10049;59.306;18.090;2023-05-07T06:43:34;1.35;;;0.40;;
19778;SDS011;10049;59.306;18.090;2023-05-07T06:46:13;0.85;;;0.50;;
19778;SDS011;10049;59.306;18.090;2023-05-07T06:48:43;0.38;;;0.38;;
19778;SDS011;10049;59.306;18.090;2023-05-07T06:51:10;0.30;;;0.30;;
19778;SDS011;10049;59.306;18.090;2023-05-07T06:53:38;1.48;;;0.40;;
19778;SDS011;10049;59.306;18.090;2023-05-07T06:56:05;0.68;;;0.50;;
19778;SDS011;10049;59.306;18.090;2023-05-07T06:58:33;2.72;;;0.70;;
19778;SDS011;10049;59.306;18.090;2023-05-07T07:01:02;0.40;;;0.40;;
19778;SDS011;10049;59.306;18.090;2023-05-07T07:03:30;0.32;;;0.32;;
19778;SDS011;10049;59.306;18.090;2023-05-07T07:05:59;2.17;;;0.45;;
19778;SDS011;10049;59.306;18.090;2023-05-07T07:08:27;5.18;;;0.50;;
19778;SDS011;10049;59.306;18.090;2023-05-07T07:10:55;0.65;;;0.40;;
19778;SDS011;10049;59.306;18.090;2023-05-07T07:13:23;0.68;;;0.50;;
19778;SDS011;10049;59.306;18.090;2023-05-07T07:15:51;1.48;;;0.47;;
19778;SDS011;10049;59.306;18.090;2023-05-07T07:18:19;0.60;;;0.50;;
19778;SDS011;10049;59.306;18.090;2023-05-07T07:20:46;1.45;;;0.60;;
19778;SDS011;10049;59.306;18.090;2023-05-07T07:23:40;1.40;;;0.68;;
19778;SDS011;10049;59.306;18.090;2023-05-07T07:29:27;1.17;;;0.47;;
19778;SDS011;10049;59.306;18.090;2023-05-07T07:35:13;2.33;;;0.38;;
19778;SDS011;10049;59.306;18.090;2023-05-07T07:37:41;0.40;;;0.40;;
19778;SDS011;10049;59.306;18.090;2023-05-07T07:40:16;3.20;;;0.40;;
19778;SDS011;10049;59.306;18.090;2023-05-07T07:42:46;2.28;;;0.60;;
19778;SDS011;10049;59.306;18.090;2023-05-07T07:45:14;0.40;;;0.40;;
19778;SDS011;10049;59.306;18.090;2023-05-07T07:47:41;0.73;;;0.40;;
19778;SDS011;10049;59.306;18.090;2023-05-07T07:50:09;0.47;;;0.47;;
19778;SDS011;10049;59.306;18.090;2023-05-07T07:52:37;1.55;;;0.55;;
19778;SDS011;10049;59.306;18.090;2023-05-07T07:55:04;1.50;;;0.50;;
19778;SDS011;10049;59.306;18.090;2023-05-07T07:57:34;0.52;;;0.40;;
19778;SDS011;10049;59.306;18.090;2023-05-07T08:00:01;0.45;;;0.45;;
19778;SDS011;10049;59.306;18.090;2023-05-07T08:02:29;3.95;;;0.40;;
19778;SDS011;10049;59.306;18.090;2023-05-07T08:04:56;0.63;;;0.45;;
19778;SDS011;10049;59.306;18.090;2023-05-07T08:07:24;2.45;;;0.50;;
19778;SDS011;10049;59.306;18.090;2023-05-07T08:09:55;1.05;;;0.32;;
19778;SDS011;10049;59.306;18.090;2023-05-07T08:12:22;2.03;;;0.38;;
19778;SDS011;10049;59.306;18.090;2023-05-07T08:14:51;3.67;;;0.50;;
19778;SDS011;10049;59.306;18.090;2023-05-07T08:17:18;2.05;;;0.40;;
19778;SDS011;10049;59.306;18.090;2023-05-07T08:19:50;1.10;;;0.40;;
19778;SDS011;10049;59.306;18.090;2023-05-07T08:22:18;1.02;;;0.40;;
19778;SDS011;10049;59.306;18.090;2023-05-07T08:24:58;0.30;;;0.30;;
19778;SDS011;10049;59.306;18.090;2023-05-07T08:27:26;0.43;;;0.40;;
19778;SDS011;10049;59.306;18.090;2023-05-07T08:29:55;0.45;;;0.30;;
19778;SDS011;10049;59.306;18.090;2023-05-07T08:32:25;0.77;;;0.40;;
19778;SDS011;10049;59.306;18.090;2023-05-07T08:34:53;0.90;;;0.30;;
19778;SDS011;10049;59.306;18.090;2023-05-07T08:37:24;0.75;;;0.30;;
19778;SDS011;10049;59.306;18.090;2023-05-07T08:39:51;1.17;;;0.30;;
19778;SDS011;10049;59.306;18.090;2023-05-07T08:42:19;0.63;;;0.40;;
19778;SDS011;10049;59.306;18.090;2023-05-07T08:44:48;3.83;;;0.60;;
19778;SDS011;10049;59.306;18.090;2023-05-07T08:47:21;0.80;;;0.35;;
19778;SDS011;10049;59.306;18.090;2023-05-07T08:49:50;1.60;;;0.55;;
19778;SDS011;10049;59.306;18.090;2023-05-07T08:52:17;3.72;;;0.50;;
19778;SDS011;10049;59.306;18.090;2023-05-07T08:54:46;0.88;;;0.35;;
19778;SDS011;10049;59.306;18.090;2023-05-07T08:57:16;0.40;;;0.40;;
19778;SDS011;10049;59.306;18.090;2023-05-07T08:59:45;4.13;;;0.60;;
19778;SDS011;10049;59.306;18.090;2023-05-07T09:02:12;1.77;;;0.52;;
19778;SDS011;10049;59.306;18.090;2023-05-07T09:04:42;1.17;;;0.60;;
19778;SDS011;10049;59.306;18.090;2023-05-07T09:07:09;0.20;;;0.20;;
19778;SDS011;10049;59.306;18.090;2023-05-07T09:09:37;3.75;;;0.55;;
19778;SDS011;10049;59.306;18.090;2023-05-07T09:12:05;0.45;;;0.40;;
19778;SDS011;10049;59.306;18.090;2023-05-07T09:14:45;1.08;;;0.45;;
19778;SDS011;10049;59.306;18.090;2023-05-07T09:17:13;0.70;;;0.50;;
19778;SDS011;10049;59.306;18.090;2023-05-07T09:19:45;0.95;;;0.50;;
19778;SDS011;10049;59.306;18.090;2023-05-07T09:22:12;0.38;;;0.38;;
19778;SDS011;10049;59.306;18.090;2023-05-07T09:24:40;1.83;;;0.60;;
19778;SDS011;10049;59.306;18.090;2023-05-07T09:27:08;0.70;;;0.47;;
19778;SDS011;10049;59.306;18.090;2023-05-07T09:29:38;0.90;;;0.50;;
19778;SDS011;10049;59.306;18.090;2023-05-07T09:32:06;0.30;;;0.30;;
19778;SDS011;10049;59.306;18.090;2023-05-07T09:34:34;2.28;;;0.50;;
19778;SDS011;10049;59.306;18.090;2023-05-07T09:37:03;3.75;;;0.43;;
19778;SDS011;10049;59.306;18.090;2023-05-07T09:39:38;4.32;;;0.50;;
19778;SDS011;10049;59.306;18.090;2023-05-07T09:42:06;5.75;;;0.40;;
19778;SDS011;10049;59.306;18.090;2023-05-07T09:44:34;1.15;;;0.50;;
19778;SDS011;10049;59.306;18.090;2023-05-07T09:47:01;0.40;;;0.40;;
19778;SDS011;10049;59.306;18.090;2023-05-07T09:49:35;2.58;;;0.52;;
19778;SDS011;10049;59.306;18.090;2023-05-07T09:52:04;3.80;;;0.57;;
19778;SDS011;10049;59.306;18.090;2023-05-07T09:54:34;0.75;;;0.40;;
19778;SDS011;10049;59.306;18.090;2023-05-07T09:57:03;0.40;;;0.40;;
19778;SDS011;10049;59.306;18.090;2023-05-07T09:59:32;0.75;;;0.47;;
19778;SDS011;10049;59.306;18.090;2023-05-07T10:02:00;0.45;;;0.45;;
19778;SDS011;10049;59.306;18.090;2023-05-07T10:04:28;1.05;;;0.50;;
19778;SDS011;10049;59.306;18.090;2023-05-07T10:06:56;2.08;;;0.70;;
19778;SDS011;10049;59.306;18.090;2023-05-07T10:09:26;0.60;;;0.45;;
19778;SDS011;10049;59.306;18.090;2023-05-07T10:11:54;0.50;;;0.50;;
19778;SDS011;10049;59.306;18.090;2023-05-07T10:14:23;2.92;;;0.50;;
19778;SDS011;10049;59.306;18.090;2023-05-07T10:16:50;0.65;;;0.50;;
19778;SDS011;10049;59.306;18.090;2023-05-07T10:19:18;3.72;;;0.75;;
19778;SDS011;10049;59.306;18.090;2023-05-07T10:21:48;2.22;;;0.70;;
19778;SDS011;10049;59.306;18.090;2023-05-07T10:24:19;0.80;;;0.52;;
19778;SDS011;10049;59.306;18.090;2023-05-07T10:26:50;2.20;;;0.52;;
19778;SDS011;10049;59.306;18.090;2023-05-07T10:29:21;1.35;;;0.60;;
19778;SDS011;10049;59.306;18.090;2023-05-07T10:31:57;2.42;;;0.60;;
19778;SDS011;10049;59.306;18.090;2023-05-07T10:34:29;6.65;;;0.60;;
19778;SDS011;10049;59.306;18.090;2023-05-07T10:37:00;1.45;;;0.68;;
19778;SDS011;10049;59.306;18.090;2023-05-07T10:39:27;1.38;;;0.60;;
19778;SDS011;10049;59.306;18.090;2023-05-07T10:41:57;1.27;;;0.60;;
19778;SDS011;10049;59.306;18.090;2023-05-07T10:44:34;2.83;;;0.57;;
19778;SDS011;10049;59.306;18.090;2023-05-07T10:47:09;0.75;;;0.55;;
19778;SDS011;10049;59.306;18.090;2023-05-07T10:49:37;2.38;;;0.50;;
19778;SDS011;10049;59.306;18.090;2023-05-07T10:52:27;4.85;;;0.50;;
19778;SDS011;10049;59.306;18.090;2023-05-07T10:57:39;1.70;;;0.68;;
19778;SDS011;10049;59.306;18.090;2023-05-07T11:03:04;3.00;;;0.57;;
19778;SDS011;10049;59.306;18.090;2023-05-07T11:05:32;1.60;;;0.60;;
19778;SDS011;10049;59.306;18.090;2023-05-07T11:08:00;0.88;;;0.80;;
19778;SDS011;10049;59.306;18.090;2023-05-07T11:10:49;2.30;;;0.55;;
19778;SDS011;10049;59.306;18.090;2023-05-07T11:13:18;3.03;;;0.60;;
19778;SDS011;10049;59.306;18.090;2023-05-07T11:16:15;2.35;;;0.50;;
19778;SDS011;10049;59.306;18.090;2023-05-07T11:18:46;1.77;;;0.70;;
19778;SDS011;10049;59.306;18.090;2023-05-07T11:21:25;6.03;;;0.70;;
19778;SDS011;10049;59.306;18.090;2023-05-07T11:23:59;1.20;;;0.77;;
19778;SDS011;10049;59.306;18.090;2023-05-07T11:26:27;5.95;;;0.70;;
19778;SDS011;10049;59.306;18.090;2023-05-07T11:28:58;0.73;;;0.60;;
19778;SDS011;10049;59.306;18.090;2023-05-07T11:31:27;2.00;;;0.63;;
19778;SDS011;10049;59.306;18.090;2023-05-07T11:33:55;1.08;;;0.60;;
19778;SDS011;10049;59.306;18.090;2023-05-07T11:36:23;1.55;;;0.65;;
19778;SDS011;10049;59.306;18.090;2023-05-07T11:38:51;1.38;;;0.63;;
19778;SDS011;10049;59.306;18.090;2023-05-07T11:41:19;6.72;;;0.60;;
19778;SDS011;10049;59.306;18.090;2023-05-07T11:43:54;1.27;;;0.70;;
19778;SDS011;10049;59.306;18.090;2023-05-07T11:46:23;1.75;;;0.60;;
19778;SDS011;10049;59.306;18.090;2023-05-07T11:48:51;2.65;;;0.50;;
19778;SDS011;10049;59.306;18.090;2023-05-07T11:51:19;2.20;;;0.65;;
19778;SDS011;10049;59.306;18.090;2023-05-07T11:53:46;1.00;;;0.52;;
19778;SDS011;10049;59.306;18.090;2023-05-07T11:56:14;2.20;;;0.70;;
19778;SDS011;10049;59.306;18.090;2023-05-07T11:58:42;4.47;;;0.70;;
19778;SDS011;10049;59.306;18.090;2023-05-07T12:01:11;1.95;;;0.63;;
19778;SDS011;10049;59.306;18.090;2023-05-07T12:03:41;1.10;;;0.80;;
19778;SDS011;10049;59.306;18.090;2023-05-07T12:06:09;1.77;;;0.60;;
19778;SDS011;10049;59.306;18.090;2023-05-07T12:08:37;12.35;;;1.40;;
19778;SDS011;10049;59.306;18.090;2023-05-07T12:11:08;1.67;;;0.70;;
19778;SDS011;10049;59.306;18.090;2023-05-07T12:13:36;0.70;;;0.52;;
19778;SDS011;10049;59.306;18.090;2023-05-07T12:16:05;8.43;;;0.75;;
19778;SDS011;10049;59.306;18.090;2023-05-07T12:18:36;3.88;;;0.75;;
19778;SDS011;10049;59.306;18.090;2023-05-07T12:21:05;2.72;;;0.82;;
19778;SDS011;10049;59.306;18.090;2023-05-07T12:23:34;0.70;;;0.70;;
19778;SDS011;10049;59.306;18.090;2023-05-07T12:26:02;7.53;;;0.70;;
19778;SDS011;10049;59.306;18.090;2023-05-07T12:28:31;2.80;;;0.60;;
19778;SDS011;10049;59.306;18.090;2023-05-07T12:31:00;0.55;;;0.52;;
19778;SDS011;10049;59.306;18.090;2023-05-07T12:33:28;1.55;;;0.60;;
19778;SDS011;10049;59.306;18.090;2023-05-07T12:35:56;3.92;;;0.50;;
19778;SDS011;10049;59.306;18.090;2023-05-07T12:38:25;0.75;;;0.60;;
19778;SDS011;10049;59.306;18.090;2023-05-07T12:40:53;1.08;;;0.60;;
19778;SDS011;10049;59.306;18.090;2023-05-07T12:43:24;1.05;;;0.60;;
19778;SDS011;10049;59.306;18.090;2023-05-07T12:45:54;1.10;;;0.52;;
19778;SDS011;10049;59.306;18.090;2023-05-07T12:48:23;1.25;;;0.50;;
19778;SDS011;10049;59.306;18.090;2023-05-07T12:50:52;10.07;;;0.73;;
19778;SDS011;10049;59.306;18.090;2023-05-07T12:53:20;1.58;;;0.65;;
19778;SDS011;10049;59.306;18.090;2023-05-07T12:55:52;9.00;;;1.00;;
19778;SDS011;10049;59.306;18.090;2023-05-07T12:58:24;1.77;;;0.70;;
19778;SDS011;10049;59.306;18.090;2023-05-07T13:00:52;4.68;;;0.57;;
19778;SDS011;10049;59.306;18.090;2023-05-07T13:03:24;4.43;;;0.60;;
19778;SDS011;10049;59.306;18.090;2023-05-07T13:05:54;2.35;;;0.60;;
19778;SDS011;10049;59.306;18.090;2023-05-07T13:08:24;2.20;;;0.57;;
19778;SDS011;10049;59.306;18.090;2023-05-07T13:10:56;2.70;;;0.77;;
19778;SDS011;10049;59.306;18.090;2023-05-07T13:13:26;0.40;;;0.40;;
19778;SDS011;10049;59.306;18.090;2023-05-07T13:15:55;2.40;;;0.63;;
19778;SDS011;10049;59.306;18.090;2023-05-07T13:18:27;1.80;;;0.47;;
19778;SDS011;10049;59.306;18.090;2023-05-07T13:20:55;6.88;;;0.70;;
19778;SDS011;10049;59.306;18.090;2023-05-07T13:23:22;1.30;;;0.52;;
19778;SDS011;10049;59.306;18.090;2023-05-07T13:25:50;7.03;;;0.60;;
19778;SDS011;10049;59.306;18.090;2023-05-07T13:28:22;0.50;;;0.50;;
19778;SDS011;10049;59.306;18.090;2023-05-07T13:30:55;0.82;;;0.50;;
19778;SDS011;10049;59.306;18.090;2023-05-07T13:33:22;1.00;;;0.50;;
19778;SDS011;10049;59.306;18.090;2023-05-07T13:35:53;0.47;;;0.47;;
19778;SDS011;10049;59.306;18.090;2023-05-07T13:38:23;1.95;;;0.60;;
19778;SDS011;10049;59.306;18.090;2023-05-07T13:40:51;3.15;;;0.57;;
19778;SDS011;10049;59.306;18.090;2023-05-07T13:43:24;0.80;;;0.50;;
19778;SDS011;10049;59.306;18.090;2023-05-07T13:45:51;0.50;;;0.40;;
19778;SDS011;10049;59.306;18.090;2023-05-07T13:48:20;0.40;;;0.40;;
19778;SDS011;10049;59.306;18.090;2023-05-07T13:50:49;0.65;;;0.43;;
19778;SDS011;10049;59.306;18.090;2023-05-07T13:53:17;0.85;;;0.70;;
19778;SDS011;10049;59.306;18.090;2023-05-07T13:55:46;0.98;;;0.47;;
19778;SDS011;10049;59.306;18.090;2023-05-07T13:58:14;7.88;;;0.80;;
19778;SDS011;10049;59.306;18.090;2023-05-07T14:00:45;2.38;;;0.60;;
19778;SDS011;10049;59.306;18.090;2023-05-07T14:03:13;4.82;;;0.65;;
19778;SDS011;10049;59.306;18.090;2023-05-07T14:05:45;1.67;;;0.85;;
19778;SDS011;10049;59.306;18.090;2023-05-07T14:08:13;2.47;;;0.75;;
19778;SDS011;10049;59.306;18.090;2023-05-07T14:10:43;6.28;;;0.60;;
19778;SDS011;10049;59.306;18.090;2023-05-07T14:13:11;2.55;;;0.55;;
19778;SDS011;10049;59.306;18.090;2023-05-07T14:15:39;2.30;;;0.55;;
19778;SDS011;10049;59.306;18.090;2023-05-07T14:18:13;1.08;;;0.50;;
19778;SDS011;10049;59.306;18.090;2023-05-07T14:20:45;2.55;;;0.70;;
19778;SDS011;10049;59.306;18.090;2023-05-07T14:23:15;0.40;;;0.40;;
19778;SDS011;10049;59.306;18.090;2023-05-07T14:25:44;11.38;;;1.10;;
19778;SDS011;10049;59.306;18.090;2023-05-07T14:28:12;2.00;;;0.50;;
19778;SDS011;10049;59.306;18.090;2023-05-07T14:30:40;0.80;;;0.60;;
19778;SDS011;10049;59.306;18.090;2023-05-07T14:33:09;1.05;;;0.50;;
19778;SDS011;10049;59.306;18.090;2023-05-07T14:35:38;5.60;;;0.80;;
19778;SDS011;10049;59.306;18.090;2023-05-07T14:38:13;6.95;;;0.73;;
19778;SDS011;10049;59.306;18.090;2023-05-07T14:40:41;1.75;;;0.60;;
19778;SDS011;10049;59.306;18.090;2023-05-07T14:43:09;0.98;;;0.70;;
19778;SDS011;10049;59.306;18.090;2023-05-07T14:45:37;0.57;;;0.50;;
19778;SDS011;10049;59.306;18.090;2023-05-07T14:48:07;4.22;;;0.60;;
19778;SDS011;10049;59.306;18.090;2023-05-07T14:50:44;0.68;;;0.60;;
19778;SDS011;10049;59.306;18.090;2023-05-07T14:53:13;2.90;;;0.70;;
19778;SDS011;10049;59.306;18.090;2023-05-07T14:55:42;4.35;;;0.70;;